Blue Ridge Highway — 3FEY4 — position and weather

sailwx.info

Track history (hours):
 
Tides and Currents Weather Stations Pressure Air Temp Water Temp Dewpoint Dewpoint Depression Visibility Wind Speed Wind Dir Waves Ship Positions

Blue Ridge Highway

Last reported at 2016-Sep-14 12:33 UTC. Time now 2016-Sep-25 12:22 UTC.
Position N 27°43' W 016°21'.
Warning: this ship's position is 10 days out of date.

Length 180 m; draft 8.6 m.

Type: Cargo ship. MMSI: 355558000.

Date/timePositionNaut miles runAvg speedWind from/ knotsBaromVisibWave heightAir tempDewpointWater temp
2016-Sep-14 12:33N 27°43' W 016°21'3616.5
2016-Sep-14 10:20N 28°17' W 016°05'1417.4
2016-Sep-14 09:33N 28°27' W 015°54'1717.4
2016-Sep-14 08:33N 28°41' W 015°43'1817.6
2016-Sep-14 07:33N 28°58' W 015°37'1917.4
2016-Sep-14 06:28N 29°16' W 015°31'  
2016-Sep-11 03:33N 48°54' W 005°47'1714.4
2016-Sep-11 02:24N 49°03' W 005°26'1416.4
2016-Sep-11 01:33N 49°10' W 005°08'6315.8
2016-Sep-10 21:33N 49°40' W 003°42'1616.6
2016-Sep-10 20:33N 49°48' W 003°20'1717.2
2016-Sep-10 19:33N 49°57' W 002°57'1817.1
2016-Sep-10 18:31N 50°02' W 002°31'1617.0
2016-Sep-10 17:33N 50°06' W 002°06'6115.3
2016-Sep-10 13:33N 50°22' W 000°34'1515.0
2016-Sep-10 12:33N 50°26' W 000°11'1615.7
2016-Sep-10 11:32N 50°31' E 000°13'3915.9
2016-Sep-10 09:07N 50°51' E 001°04'916.1
2016-Sep-10 08:33N 50°58' E 001°15'1515.5
2016-Sep-10 07:33N 51°07' E 001°34'1514.6
2016-Sep-10 06:33N 51°18' E 001°49'1515.0
2016-Sep-10 05:33N 51°31' E 002°02'1615.9
2016-Sep-10 04:34N 51°43' E 002°19'1716.6
2016-Sep-10 03:33N 51°55' E 002°37'1717.4
2016-Sep-10 02:33N 52°08' E 002°56'1817.5
2016-Sep-10 01:33N 52°22' E 003°13'1717.2
2016-Sep-10 00:33N 52°36' E 003°30'1816.6
2016-Sep-09 23:29N 52°50' E 003°48'1515.8
2016-Sep-09 22:33N 53°01' E 004°05'1515.4
2016-Sep-09 21:33N 53°11' E 004°24'1515.2
2016-Sep-09 20:33N 53°25' E 004°35'1515.3
2016-Sep-09 19:33N 53°32' E 004°57'1716.8
2016-Sep-09 18:33N 53°38' E 005°24'1717.2
2016-Sep-09 17:33N 53°44' E 005°51'1514.7
2016-Sep-09 16:33N 53°43' E 006°15'1313.4
2016-Sep-09 15:33N 53°36' E 006°35'1615.8
2016-Sep-09 14:34N 53°26' E 006°55'10 9.9
2016-Sep-09 13:33N 53°20' E 007°08'1 1.4
2016-Sep-09 12:33N 53°20' E 007°11'0 0.0
2016-Sep-09 11:33N 53°20' E 007°11'0 0.0
2016-Sep-09 10:33N 53°20' E 007°11'0 0.0
2016-Sep-09 09:33N 53°20' E 007°11'0 0.0
2016-Sep-09 08:33N 53°20' E 007°11'0 0.0
2016-Sep-09 07:33N 53°20' E 007°11'0 0.0
2016-Sep-09 06:33N 53°20' E 007°11'0 0.0
2016-Sep-09 05:30N 53°20' E 007°11'0 0.0
2016-Sep-09 04:33N 53°20' E 007°11'0 0.0
2016-Sep-09 03:33N 53°20' E 007°11'0 0.0
2016-Sep-09 02:33N 53°20' E 007°11'0 0.0
2016-Sep-09 01:30N 53°20' E 007°11'0 0.0
2016-Sep-09 00:30N 53°20' E 007°11'0 0.2
2016-Sep-08 23:34N 53°20' E 007°11'8 8.2
2016-Sep-08 22:34N 53°23' E 006°58'1817.6
2016-Sep-08 21:34N 53°35' E 006°37'1212.3
2016-Sep-08 20:33N 53°40' E 006°18'10 9.7
2016-Sep-08 19:33N 53°49' E 006°25'1717.2
2016-Sep-08 18:33N 53°54' E 006°53'1717.1
2016-Sep-08 17:33N 53°58' E 007°21'1413.6
2016-Sep-08 16:33N 53°55' E 007°44'1514.6
2016-Sep-08 15:34N 53°49' E 008°06'1515.1
2016-Sep-08 14:33N 53°39' E 008°25'7 6.7
2016-Sep-08 13:33N 53°34' E 008°33'0 0.4
2016-Sep-08 12:28N 53°34' E 008°33'0 0.0
2016-Sep-08 11:31N 53°34' E 008°33'0 0.0
2016-Sep-08 10:31N 53°35' E 008°33'0 0.0
2016-Sep-08 09:31N 53°34' E 008°33'0 0.0
2016-Sep-08 08:31N 53°34' E 008°33'0 0.0
2016-Sep-08 07:31N 53°34' E 008°33'0 0.0
2016-Sep-08 06:31N 53°34' E 008°34'0 0.0
2016-Sep-08 05:31N 53°34' E 008°33'0 0.0
2016-Sep-08 04:31N 53°34' E 008°33'0 0.0
2016-Sep-08 03:31N 53°34' E 008°34'0 0.0
2016-Sep-08 02:31N 53°34' E 008°33'0 0.0
2016-Sep-08 01:31N 53°34' E 008°33'0 0.0
2016-Sep-08 00:31N 53°34' E 008°33'0 0.0
2016-Sep-07 23:31N 53°34' E 008°33'0 0.0
2016-Sep-07 22:28N 53°34' E 008°33'0 0.0
2016-Sep-07 21:31N 53°34' E 008°34'0 0.0
2016-Sep-07 20:31N 53°34' E 008°34'0 0.0
2016-Sep-07 19:31N 53°34' E 008°33'0 0.0
2016-Sep-07 18:31N 53°34' E 008°33'0 0.1
2016-Sep-07 17:33N 53°34' E 008°33'1 1.4
2016-Sep-07 16:33N 53°35' E 008°31'1312.7
2016-Sep-07 15:33N 53°44' E 008°15'1515.4
2016-Sep-07 14:33N 53°52' E 007°53'10 9.9
2016-Sep-07 13:33N 53°54' E 007°37'1010.2
2016-Sep-07 12:33N 53°53' E 007°20'1817.7
2016-Sep-07 11:34N 53°49' E 006°50'1817.6
2016-Sep-07 10:33N 53°45' E 006°21'1817.6
2016-Sep-07 09:33N 53°39' E 005°53'1817.6
2016-Sep-07 08:33N 53°33' E 005°25'1817.7
2016-Sep-07 07:33N 53°28' E 004°57'1716.6
2016-Sep-07 06:33N 53°17' E 004°36'3617.8
2016-Sep-07 04:33N 52°46' E 004°06'1717.3
2016-Sep-07 03:32N 52°33' E 003°47'1716.9
2016-Sep-07 02:33N 52°21' E 003°28'1716.7
2016-Sep-07 01:33N 52°09' E 003°09'1715.7
2016-Sep-07 00:27N 51°55' E 002°52'1415.7
2016-Sep-06 23:34N 51°43' E 002°42'1615.5
2016-Sep-06 22:33N 51°27' E 002°44'9 9.3
2016-Sep-06 21:33N 51°23' E 002°58'10 9.9
2016-Sep-06 20:33N 51°20' E 003°13'0 0.2
2016-Sep-06 19:33N 51°20' E 003°13'2 2.0
2016-Sep-06 18:32N 51°18' E 003°14'0 0.0
2016-Sep-06 17:32N 51°18' E 003°14'0 0.0
2016-Sep-06 16:32N 51°18' E 003°14'0 0.0
2016-Sep-06 15:32N 51°18' E 003°14'0 0.0
2016-Sep-06 14:32N 51°18' E 003°14'0 0.0
2016-Sep-06 13:32N 51°18' E 003°14'0 0.0
2016-Sep-06 12:32N 51°18' E 003°14'0 0.0
2016-Sep-06 11:32N 51°18' E 003°14'0 0.0
2016-Sep-06 10:32N 51°18' E 003°14'0 0.0
2016-Sep-06 09:32N 51°18' E 003°14'0 0.0
2016-Sep-06 08:32N 51°18' E 003°14'0 0.0
2016-Sep-06 07:32N 51°18' E 003°14'0 0.0
2016-Sep-06 06:32N 51°18' E 003°14'0 0.0
2016-Sep-06 04:32N 51°18' E 003°14'0 0.0
2016-Sep-06 03:32N 51°18' E 003°14'0 0.0
2016-Sep-06 02:32N 51°18' E 003°14'0 0.0
2016-Sep-06 01:32N 51°18' E 003°14'0 0.0
2016-Sep-06 00:32N 51°18' E 003°14'0 0.0
2016-Sep-05 23:32N 51°18' E 003°14'0 0.0
2016-Sep-05 22:32N 51°18' E 003°14'0 0.0
2016-Sep-05 21:32N 51°18' E 003°14'0 0.0
2016-Sep-05 20:32N 51°18' E 003°14'0 0.0
2016-Sep-05 19:32N 51°18' E 003°14'2 2.1
2016-Sep-05 18:33N 51°20' E 003°13'0 0.0
2016-Sep-05 17:33N 51°20' E 003°13'7 7.1
2016-Sep-05 16:33N 51°22' E 003°02'1313.1
2016-Sep-05 15:33N 51°25' E 002°42'4 3.8
2016-Sep-05 14:33N 51°27' E 002°36'0 0.0
2016-Sep-05 13:33N 51°27' E 002°36'0 0.1
2016-Sep-05 12:33N 51°27' E 002°36'0 0.0
2016-Sep-05 11:33N 51°27' E 002°36'0 0.0
2016-Sep-05 10:33N 51°27' E 002°36'0 0.0
2016-Sep-05 09:33N 51°27' E 002°36'0 0.0
2016-Sep-05 08:33N 51°27' E 002°36'0 0.1
2016-Sep-05 07:33N 51°27' E 002°37'0 0.0
2016-Sep-05 06:33N 51°27' E 002°37'0 0.1
2016-Sep-05 04:33N 51°27' E 002°36'7 7.3
2016-Sep-05 03:33N 51°21' E 002°28'1717.0
2016-Sep-05 02:33N 51°13' E 002°04'1918.7
2016-Sep-05 01:34N 51°03' E 001°39'1818.2
2016-Sep-05 00:34N 50°47' E 001°24'5117.0
2016-Sep-04 21:34N 50°22' E 000°15'1817.9
2016-Sep-04 20:34N 50°16' W 000°11'1717.3
2016-Sep-04 19:33N 50°12' W 000°38'1716.2
2016-Sep-04 18:29N 50°09' W 001°04'1414.7
2016-Sep-04 17:33N 50°04' W 001°25'1413.3
2016-Sep-04 16:28N 50°00' W 001°46'2612.6
2016-Sep-04 14:27N 49°54' W 002°25'1314.4
2016-Sep-04 13:33N 49°51' W 002°44'1515.3
2016-Sep-04 12:34N 49°48' W 003°07'  
Track history (hours):
 
Tides and Currents Weather Stations Pressure Air Temp Water Temp Dewpoint Dewpoint Depression Visibility Wind Speed Wind Dir Waves Ship Positions

Blue Ridge Highway

Last reported at 2016-Sep-14 12:33 UTC. Time now 2016-Sep-25 12:22 UTC.
Position N 27°43' W 016°21'.
Warning: this ship's position is 10 days out of date.

Length 180 m; draft 8.6 m.

Type: Cargo ship. MMSI: 355558000.

Date/timePositionNaut miles runAvg speedWind from/ knotsBaromVisibWave heightAir tempDewpointWater temp
2016-Sep-14 12:33N 27°43' W 016°21'3616.5
2016-Sep-14 10:20N 28°17' W 016°05'1417.4
2016-Sep-14 09:33N 28°27' W 015°54'1717.4
2016-Sep-14 08:33N 28°41' W 015°43'1817.6
2016-Sep-14 07:33N 28°58' W 015°37'1917.4
2016-Sep-14 06:28N 29°16' W 015°31'  
2016-Sep-11 03:33N 48°54' W 005°47'1714.4
2016-Sep-11 02:24N 49°03' W 005°26'1416.4
2016-Sep-11 01:33N 49°10' W 005°08'6315.8
2016-Sep-10 21:33N 49°40' W 003°42'1616.6
2016-Sep-10 20:33N 49°48' W 003°20'1717.2
2016-Sep-10 19:33N 49°57' W 002°57'1817.1
2016-Sep-10 18:31N 50°02' W 002°31'1617.0
2016-Sep-10 17:33N 50°06' W 002°06'6115.3
2016-Sep-10 13:33N 50°22' W 000°34'1515.0
2016-Sep-10 12:33N 50°26' W 000°11'1615.7
2016-Sep-10 11:32N 50°31' E 000°13'3915.9
2016-Sep-10 09:07N 50°51' E 001°04'916.1
2016-Sep-10 08:33N 50°58' E 001°15'1515.5
2016-Sep-10 07:33N 51°07' E 001°34'1514.6
2016-Sep-10 06:33N 51°18' E 001°49'1515.0
2016-Sep-10 05:33N 51°31' E 002°02'1615.9
2016-Sep-10 04:34N 51°43' E 002°19'1716.6
2016-Sep-10 03:33N 51°55' E 002°37'1717.4
2016-Sep-10 02:33N 52°08' E 002°56'1817.5
2016-Sep-10 01:33N 52°22' E 003°13'1717.2
2016-Sep-10 00:33N 52°36' E 003°30'1816.6
2016-Sep-09 23:29N 52°50' E 003°48'1515.8
2016-Sep-09 22:33N 53°01' E 004°05'1515.4
2016-Sep-09 21:33N 53°11' E 004°24'1515.2
2016-Sep-09 20:33N 53°25' E 004°35'1515.3
2016-Sep-09 19:33N 53°32' E 004°57'1716.8
2016-Sep-09 18:33N 53°38' E 005°24'1717.2
2016-Sep-09 17:33N 53°44' E 005°51'1514.7
2016-Sep-09 16:33N 53°43' E 006°15'1313.4
2016-Sep-09 15:33N 53°36' E 006°35'1615.8
2016-Sep-09 14:34N 53°26' E 006°55'10 9.9
2016-Sep-09 13:33N 53°20' E 007°08'1 1.4
2016-Sep-09 12:33N 53°20' E 007°11'0 0.0
2016-Sep-09 11:33N 53°20' E 007°11'0 0.0
2016-Sep-09 10:33N 53°20' E 007°11'0 0.0
2016-Sep-09 09:33N 53°20' E 007°11'0 0.0
2016-Sep-09 08:33N 53°20' E 007°11'0 0.0
2016-Sep-09 07:33N 53°20' E 007°11'0 0.0
2016-Sep-09 06:33N 53°20' E 007°11'0 0.0
2016-Sep-09 05:30N 53°20' E 007°11'0 0.0
2016-Sep-09 04:33N 53°20' E 007°11'0 0.0
2016-Sep-09 03:33N 53°20' E 007°11'0 0.0
2016-Sep-09 02:33N 53°20' E 007°11'0 0.0
2016-Sep-09 01:30N 53°20' E 007°11'0 0.0
2016-Sep-09 00:30N 53°20' E 007°11'0 0.2
2016-Sep-08 23:34N 53°20' E 007°11'8 8.2
2016-Sep-08 22:34N 53°23' E 006°58'1817.6
2016-Sep-08 21:34N 53°35' E 006°37'1212.3
2016-Sep-08 20:33N 53°40' E 006°18'10 9.7
2016-Sep-08 19:33N 53°49' E 006°25'1717.2
2016-Sep-08 18:33N 53°54' E 006°53'1717.1
2016-Sep-08 17:33N 53°58' E 007°21'1413.6
2016-Sep-08 16:33N 53°55' E 007°44'1514.6
2016-Sep-08 15:34N 53°49' E 008°06'1515.1
2016-Sep-08 14:33N 53°39' E 008°25'7 6.7
2016-Sep-08 13:33N 53°34' E 008°33'0 0.4
2016-Sep-08 12:28N 53°34' E 008°33'0 0.0
2016-Sep-08 11:31N 53°34' E 008°33'0 0.0
2016-Sep-08 10:31N 53°35' E 008°33'0 0.0
2016-Sep-08 09:31N 53°34' E 008°33'0 0.0
2016-Sep-08 08:31N 53°34' E 008°33'0 0.0
2016-Sep-08 07:31N 53°34' E 008°33'0 0.0
2016-Sep-08 06:31N 53°34' E 008°34'0 0.0
2016-Sep-08 05:31N 53°34' E 008°33'0 0.0
2016-Sep-08 04:31N 53°34' E 008°33'0 0.0
2016-Sep-08 03:31N 53°34' E 008°34'0 0.0
2016-Sep-08 02:31N 53°34' E 008°33'0 0.0
2016-Sep-08 01:31N 53°34' E 008°33'0 0.0
2016-Sep-08 00:31N 53°34' E 008°33'0 0.0
2016-Sep-07 23:31N 53°34' E 008°33'0 0.0
2016-Sep-07 22:28N 53°34' E 008°33'0 0.0
2016-Sep-07 21:31N 53°34' E 008°34'0 0.0
2016-Sep-07 20:31N 53°34' E 008°34'0 0.0
2016-Sep-07 19:31N 53°34' E 008°33'0 0.0
2016-Sep-07 18:31N 53°34' E 008°33'0 0.1
2016-Sep-07 17:33N 53°34' E 008°33'1 1.4
2016-Sep-07 16:33N 53°35' E 008°31'1312.7
2016-Sep-07 15:33N 53°44' E 008°15'1515.4
2016-Sep-07 14:33N 53°52' E 007°53'10 9.9
2016-Sep-07 13:33N 53°54' E 007°37'1010.2
2016-Sep-07 12:33N 53°53' E 007°20'1817.7
2016-Sep-07 11:34N 53°49' E 006°50'1817.6
2016-Sep-07 10:33N 53°45' E 006°21'1817.6
2016-Sep-07 09:33N 53°39' E 005°53'1817.6
2016-Sep-07 08:33N 53°33' E 005°25'1817.7
2016-Sep-07 07:33N 53°28' E 004°57'1716.6
2016-Sep-07 06:33N 53°17' E 004°36'3617.8
2016-Sep-07 04:33N 52°46' E 004°06'1717.3
2016-Sep-07 03:32N 52°33' E 003°47'1716.9
2016-Sep-07 02:33N 52°21' E 003°28'1716.7
2016-Sep-07 01:33N 52°09' E 003°09'1715.7
2016-Sep-07 00:27N 51°55' E 002°52'1415.7
2016-Sep-06 23:34N 51°43' E 002°42'1615.5
2016-Sep-06 22:33N 51°27' E 002°44'9 9.3
2016-Sep-06 21:33N 51°23' E 002°58'10 9.9
2016-Sep-06 20:33N 51°20' E 003°13'0 0.2
2016-Sep-06 19:33N 51°20' E 003°13'2 2.0
2016-Sep-06 18:32N 51°18' E 003°14'0 0.0
2016-Sep-06 17:32N 51°18' E 003°14'0 0.0
2016-Sep-06 16:32N 51°18' E 003°14'0 0.0
2016-Sep-06 15:32N 51°18' E 003°14'0 0.0
2016-Sep-06 14:32N 51°18' E 003°14'0 0.0
2016-Sep-06 13:32N 51°18' E 003°14'0 0.0
2016-Sep-06 12:32N 51°18' E 003°14'0 0.0
2016-Sep-06 11:32N 51°18' E 003°14'0 0.0
2016-Sep-06 10:32N 51°18' E 003°14'0 0.0
2016-Sep-06 09:32N 51°18' E 003°14'0 0.0
2016-Sep-06 08:32N 51°18' E 003°14'0 0.0
2016-Sep-06 07:32N 51°18' E 003°14'0 0.0
2016-Sep-06 06:32N 51°18' E 003°14'0 0.0
2016-Sep-06 04:32N 51°18' E 003°14'0 0.0
2016-Sep-06 03:32N 51°18' E 003°14'0 0.0
2016-Sep-06 02:32N 51°18' E 003°14'0 0.0
2016-Sep-06 01:32N 51°18' E 003°14'0 0.0
2016-Sep-06 00:32N 51°18' E 003°14'0 0.0
2016-Sep-05 23:32N 51°18' E 003°14'0 0.0
2016-Sep-05 22:32N 51°18' E 003°14'0 0.0
2016-Sep-05 21:32N 51°18' E 003°14'0 0.0
2016-Sep-05 20:32N 51°18' E 003°14'0 0.0
2016-Sep-05 19:32N 51°18' E 003°14'2 2.1
2016-Sep-05 18:33N 51°20' E 003°13'0 0.0
2016-Sep-05 17:33N 51°20' E 003°13'7 7.1
2016-Sep-05 16:33N 51°22' E 003°02'1313.1
2016-Sep-05 15:33N 51°25' E 002°42'4 3.8
2016-Sep-05 14:33N 51°27' E 002°36'0 0.0
2016-Sep-05 13:33N 51°27' E 002°36'0 0.1
2016-Sep-05 12:33N 51°27' E 002°36'0 0.0
2016-Sep-05 11:33N 51°27' E 002°36'0 0.0
2016-Sep-05 10:33N 51°27' E 002°36'0 0.0
2016-Sep-05 09:33N 51°27' E 002°36'0 0.0
2016-Sep-05 08:33N 51°27' E 002°36'0 0.1
2016-Sep-05 07:33N 51°27' E 002°37'0 0.0
2016-Sep-05 06:33N 51°27' E 002°37'0 0.1
2016-Sep-05 04:33N 51°27' E 002°36'7 7.3
2016-Sep-05 03:33N 51°21' E 002°28'1717.0
2016-Sep-05 02:33N 51°13' E 002°04'1918.7
2016-Sep-05 01:34N 51°03' E 001°39'1818.2
2016-Sep-05 00:34N 50°47' E 001°24'5117.0
2016-Sep-04 21:34N 50°22' E 000°15'1817.9
2016-Sep-04 20:34N 50°16' W 000°11'1717.3
2016-Sep-04 19:33N 50°12' W 000°38'1716.2
2016-Sep-04 18:29N 50°09' W 001°04'1414.7
2016-Sep-04 17:33N 50°04' W 001°25'1413.3
2016-Sep-04 16:28N 50°00' W 001°46'2612.6
2016-Sep-04 14:27N 49°54' W 002°25'1314.4
2016-Sep-04 13:33N 49°51' W 002°44'1515.3
2016-Sep-04 12:34N 49°48' W 003°07'  

Dump ship's entire track history